Time;durP1;ratioP1;P1;durP2;ratioP2;P2;SDS_P1;SDS_P2;PMS_P1;PMS_P2;Temp;Humidity;BMP_temperature;BMP_pressure;BME280_temperature;BME280_humidity;BME280_pressure;Samples;Min_cycle;Max_cycle;Signal;HPM_P1;HPM_P2
2022/09/02 00:00:59;;;;;;;2.73;2.53;;;;;;;;;;5106392;28;20212;-70
2022/09/02 00:03:33;;;;;;;2.63;2.40;;;;;;;;;;5097816;27;20669;-70
2022/09/02 00:06:01;;;;;;;3.17;2.40;;;;;;;;;;5103681;27;20295;-67
2022/09/02 00:08:30;;;;;;;2.57;2.37;;;;;;;;;;5098835;28;20211;-70
2022/09/02 00:11:04;;;;;;;5.47;2.55;;;;;;;;;;5101281;27;20211;-70
2022/09/02 00:13:33;;;;;;;3.37;2.50;;;;;;;;;;5101608;28;20203;-69
2022/09/02 00:16:01;;;;;;;2.63;2.43;;;;;;;;;;5104807;27;20689;-67
2022/09/02 00:18:29;;;;;;;2.60;2.20;;;;;;;;;;5100828;27;20200;-69
2022/09/02 00:20:57;;;;;;;2.27;2.13;;;;;;;;;;5120036;27;20208;-69
2022/09/02 00:23:24;;;;;;;4.53;2.60;;;;;;;;;;5101163;27;20195;-67
2022/09/02 00:25:53;;;;;;;2.50;2.40;;;;;;;;;;5096905;28;20217;-69
2022/09/02 00:28:21;;;;;;;2.50;2.30;;;;;;;;;;5116504;27;20810;-67
2022/09/02 00:30:50;;;;;;;2.50;2.30;;;;;;;;;;5102400;28;20211;-69
2022/09/02 00:33:17;;;;;;;2.60;2.40;;;;;;;;;;5104992;27;20199;-69
2022/09/02 00:35:45;;;;;;;3.40;2.50;;;;;;;;;;5101267;27;20307;-69
2022/09/02 00:38:12;;;;;;;2.30;2.10;;;;;;;;;;5094667;27;20196;-67
2022/09/02 00:40:43;;;;;;;2.43;2.10;;;;;;;;;;5118808;27;20199;-69
2022/09/02 00:43:11;;;;;;;3.23;2.30;;;;;;;;;;5108435;27;20212;-69
2022/09/02 00:45:38;;;;;;;2.60;2.40;;;;;;;;;;5103394;27;20200;-67
2022/09/02 00:48:06;;;;;;;4.10;2.37;;;;;;;;;;5096085;27;20748;-68
2022/09/02 00:50:35;;;;;;;2.33;2.23;;;;;;;;;;5107528;27;20220;-71
2022/09/02 00:53:05;;;;;;;2.70;2.50;;;;;;;;;;5122030;27;20219;-70
2022/09/02 00:55:35;;;;;;;5.23;2.80;;;;;;;;;;5103719;27;20223;-70
2022/09/02 00:58:06;;;;;;;2.70;2.50;;;;;;;;;;5103067;27;20290;-69
2022/09/02 01:00:37;;;;;;;2.67;2.30;;;;;;;;;;5097606;27;20208;-65
2022/09/02 01:03:08;;;;;;;2.60;2.40;;;;;;;;;;5095279;27;20228;-68
2022/09/02 01:05:38;;;;;;;3.00;2.47;;;;;;;;;;5088665;27;20202;-68
2022/09/02 01:08:10;;;;;;;3.53;2.50;;;;;;;;;;5113266;27;20331;-69
2022/09/02 01:10:38;;;;;;;3.00;2.77;;;;;;;;;;5093440;27;20203;-68
2022/09/02 01:13:08;;;;;;;3.33;3.03;;;;;;;;;;5098907;27;20223;-70
2022/09/02 01:15:38;;;;;;;2.40;2.30;;;;;;;;;;5095502;27;20664;-68
2022/09/02 01:18:07;;;;;;;2.97;2.77;;;;;;;;;;5114429;27;20217;-70
2022/09/02 01:20:35;;;;;;;5.47;2.80;;;;;;;;;;5099390;27;20227;-68
2022/09/02 01:23:02;;;;;;;3.53;2.90;;;;;;;;;;5102736;27;20246;-67
2022/09/02 01:25:32;;;;;;;3.27;2.73;;;;;;;;;;5093949;27;20260;-69
2022/09/02 01:28:19;;;;;;;3.03;2.73;;;;;;;;;;5103762;27;20212;-69
2022/09/02 01:30:52;;;;;;;2.90;2.70;;;;;;;;;;5099657;27;20231;-66
2022/09/02 01:33:21;;;;;;;3.93;2.80;;;;;;;;;;5099380;27;20256;-70
2022/09/02 01:35:52;;;;;;;3.87;2.90;;;;;;;;;;5100684;27;20223;-70
2022/09/02 01:38:19;;;;;;;3.07;2.87;;;;;;;;;;5097846;27;20195;-69
2022/09/02 01:40:47;;;;;;;3.50;3.20;;;;;;;;;;5093771;27;20662;-68
2022/09/02 01:43:16;;;;;;;4.37;3.33;;;;;;;;;;5099707;27;20232;-66
2022/09/02 01:45:45;;;;;;;4.80;2.90;;;;;;;;;;5103874;27;20665;-68
2022/09/02 01:48:13;;;;;;;4.63;4.20;;;;;;;;;;5114558;27;20208;-70
2022/09/02 01:50:50;;;;;;;5.23;3.57;;;;;;;;;;5100394;27;20252;-70
2022/09/02 01:53:17;;;;;;;3.80;2.90;;;;;;;;;;5096092;27;20672;-68
2022/09/02 01:55:45;;;;;;;3.30;3.00;;;;;;;;;;5098438;27;20281;-69
2022/09/02 01:58:12;;;;;;;4.03;2.93;;;;;;;;;;5101458;27;20688;-69
2022/09/02 02:00:39;;;;;;;5.00;3.33;;;;;;;;;;5101480;27;20245;-68
2022/09/02 02:03:07;;;;;;;3.50;3.00;;;;;;;;;;5104284;27;20824;-67
2022/09/02 02:05:34;;;;;;;4.07;3.27;;;;;;;;;;5097713;27;20200;-67
2022/09/02 02:08:02;;;;;;;3.53;3.20;;;;;;;;;;5107876;27;20211;-69
2022/09/02 02:10:29;;;;;;;3.50;3.03;;;;;;;;;;5102231;27;20204;-69
2022/09/02 02:12:57;;;;;;;4.87;3.10;;;;;;;;;;5116547;27;20227;-67
2022/09/02 02:15:24;;;;;;;3.63;3.33;;;;;;;;;;5104380;27;20228;-68
2022/09/02 02:17:51;;;;;;;4.40;3.77;;;;;;;;;;5101007;27;20184;-71
2022/09/02 02:20:19;;;;;;;4.90;3.33;;;;;;;;;;5086108;27;20211;-72
2022/09/02 02:22:46;;;;;;;5.33;3.57;;;;;;;;;;5097643;27;20771;-68
2022/09/02 02:25:15;;;;;;;3.40;3.10;;;;;;;;;;5095745;27;20204;-69
2022/09/02 02:27:43;;;;;;;3.60;3.30;;;;;;;;;;5096599;27;20775;-71
2022/09/02 02:30:11;;;;;;;3.13;2.93;;;;;;;;;;5094104;27;20195;-69
2022/09/02 02:32:38;;;;;;;3.30;3.00;;;;;;;;;;5101211;27;20234;-68
2022/09/02 02:35:06;;;;;;;3.97;3.30;;;;;;;;;;5104374;27;20218;-67
2022/09/02 02:37:34;;;;;;;5.17;3.30;;;;;;;;;;5094711;27;20226;-69
2022/09/02 02:40:01;;;;;;;3.53;3.30;;;;;;;;;;5093527;27;20264;-69
2022/09/02 02:42:29;;;;;;;3.97;3.10;;;;;;;;;;5103916;27;20276;-74
2022/09/02 02:44:56;;;;;;;3.77;3.47;;;;;;;;;;5099906;27;20200;-70
2022/09/02 02:47:24;;;;;;;3.57;3.27;;;;;;;;;;5098299;27;20228;-70
2022/09/02 02:49:51;;;;;;;4.00;3.20;;;;;;;;;;5099298;27;20806;-67
2022/09/02 02:52:19;;;;;;;4.30;3.50;;;;;;;;;;5117756;27;20276;-68
2022/09/02 02:54:46;;;;;;;3.20;2.83;;;;;;;;;;5102356;27;20707;-70
2022/09/02 02:57:14;;;;;;;3.80;3.40;;;;;;;;;;5094949;27;20200;-67
2022/09/02 02:59:41;;;;;;;3.23;2.93;;;;;;;;;;5090360;27;20257;-68
2022/09/02 03:02:09;;;;;;;4.47;3.17;;;;;;;;;;5098171;27;20224;-69
2022/09/02 03:04:38;;;;;;;3.60;3.40;;;;;;;;;;5104368;27;20204;-67
2022/09/02 03:07:06;;;;;;;3.20;3.00;;;;;;;;;;5102916;27;20559;-67
2022/09/02 03:09:33;;;;;;;3.30;3.00;;;;;;;;;;5093577;27;20286;-68
2022/09/02 03:12:01;;;;;;;6.07;3.40;;;;;;;;;;5099599;27;20227;-72
2022/09/02 03:14:29;;;;;;;3.50;3.20;;;;;;;;;;5119874;27;20218;-68
2022/09/02 03:16:57;;;;;;;5.87;3.10;;;;;;;;;;5095718;27;20227;-71
2022/09/02 03:19:26;;;;;;;3.90;3.50;;;;;;;;;;5100836;27;20258;-68
2022/09/02 03:21:53;;;;;;;4.80;3.57;;;;;;;;;;5119882;27;20223;-73
2022/09/02 03:24:21;;;;;;;4.77;3.70;;;;;;;;;;5108727;27;20196;-68
2022/09/02 03:26:49;;;;;;;3.80;3.50;;;;;;;;;;5097728;27;20213;-68
2022/09/02 03:29:16;;;;;;;4.27;3.60;;;;;;;;;;5097614;27;20935;-68
2022/09/02 03:31:44;;;;;;;6.17;3.80;;;;;;;;;;5100731;27;21520;-72
2022/09/02 03:34:12;;;;;;;5.33;3.33;;;;;;;;;;5099593;27;20294;-73
2022/09/02 03:36:42;;;;;;;4.97;3.70;;;;;;;;;;5079856;27;20707;-70
2022/09/02 03:39:11;;;;;;;3.73;3.40;;;;;;;;;;5095539;27;20199;-67
2022/09/02 03:41:41;;;;;;;4.60;3.47;;;;;;;;;;5093396;28;20775;-69
2022/09/02 03:44:09;;;;;;;3.50;3.20;;;;;;;;;;5087716;27;20275;-69
2022/09/02 03:46:36;;;;;;;3.90;3.60;;;;;;;;;;5100661;28;20223;-66
2022/09/02 03:49:04;;;;;;;3.87;3.37;;;;;;;;;;5100937;27;20203;-67
2022/09/02 03:51:32;;;;;;;4.63;3.47;;;;;;;;;;5093259;27;20705;-68
2022/09/02 03:54:02;;;;;;;4.00;3.70;;;;;;;;;;5092868;27;20321;-68
2022/09/02 03:56:30;;;;;;;3.83;3.53;;;;;;;;;;5105731;28;20242;-69
2022/09/02 03:58:57;;;;;;;4.00;3.70;;;;;;;;;;5103303;27;20207;-66
2022/09/02 04:01:25;;;;;;;5.87;4.33;;;;;;;;;;5096393;27;20211;-68
2022/09/02 04:03:55;;;;;;;4.10;3.70;;;;;;;;;;5110486;27;20195;-69
2022/09/02 04:06:24;;;;;;;3.80;3.47;;;;;;;;;;5094573;28;20195;-70
2022/09/02 04:08:58;;;;;;;4.27;3.60;;;;;;;;;;5100242;27;20203;-71
2022/09/02 04:11:26;;;;;;;5.47;4.03;;;;;;;;;;5103603;27;20242;-69
2022/09/02 04:13:53;;;;;;;4.10;3.80;;;;;;;;;;5127887;27;20261;-68
2022/09/02 04:16:27;;;;;;;5.87;3.80;;;;;;;;;;5111388;27;20215;-72
2022/09/02 04:18:56;;;;;;;6.13;4.30;;;;;;;;;;5139574;27;20234;-71
2022/09/02 04:21:24;;;;;;;4.80;4.40;;;;;;;;;;5107855;27;20964;-68
2022/09/02 04:23:52;;;;;;;5.37;4.30;;;;;;;;;;5113439;27;20231;-69
2022/09/02 04:26:20;;;;;;;4.30;3.90;;;;;;;;;;5111879;27;20260;-67
2022/09/02 04:28:48;;;;;;;5.90;4.30;;;;;;;;;;5111024;27;20207;-69
2022/09/02 04:31:18;;;;;;;4.97;4.57;;;;;;;;;;5115736;27;20220;-69
2022/09/02 04:33:48;;;;;;;4.87;4.23;;;;;;;;;;5134453;27;20195;-70
2022/09/02 04:36:16;;;;;;;5.13;4.60;;;;;;;;;;5115430;27;20255;-70
2022/09/02 04:38:43;;;;;;;5.23;4.60;;;;;;;;;;5114898;27;20207;-69
2022/09/02 04:41:15;;;;;;;4.47;4.07;;;;;;;;;;5108917;27;20235;-69
2022/09/02 04:43:43;;;;;;;5.30;4.50;;;;;;;;;;5115423;27;20646;-69
2022/09/02 04:46:11;;;;;;;5.30;4.57;;;;;;;;;;5094147;27;20277;-70
2022/09/02 04:48:40;;;;;;;5.60;4.27;;;;;;;;;;5108815;27;20596;-69
2022/09/02 04:51:09;;;;;;;5.57;4.23;;;;;;;;;;5107187;27;20201;-69
2022/09/02 04:53:36;;;;;;;5.07;4.00;;;;;;;;;;5105507;27;20200;-68
2022/09/02 04:56:05;;;;;;;5.07;4.67;;;;;;;;;;5108310;27;20220;-69
2022/09/02 04:58:33;;;;;;;4.90;4.50;;;;;;;;;;5111512;27;20257;-69
2022/09/02 05:01:05;;;;;;;5.53;4.27;;;;;;;;;;5108045;27;20204;-67
2022/09/02 05:03:32;;;;;;;5.77;4.73;;;;;;;;;;5099765;27;20191;-70
2022/09/02 05:06:05;;;;;;;4.93;4.53;;;;;;;;;;5101605;27;20249;-69
2022/09/02 05:08:35;;;;;;;8.07;5.20;;;;;;;;;;5101214;27;20206;-70
2022/09/02 05:11:06;;;;;;;5.43;4.90;;;;;;;;;;5121850;27;20223;-69
2022/09/02 05:13:35;;;;;;;5.87;4.70;;;;;;;;;;5110520;27;20203;-67
2022/09/02 05:16:02;;;;;;;4.80;4.40;;;;;;;;;;5105665;27;20228;-67
2022/09/02 05:18:30;;;;;;;5.10;4.60;;;;;;;;;;5110153;27;20565;-69
2022/09/02 05:20:57;;;;;;;5.50;5.00;;;;;;;;;;5106848;27;20210;-67
2022/09/02 05:23:25;;;;;;;4.83;4.47;;;;;;;;;;5102815;27;20256;-69
2022/09/02 05:25:52;;;;;;;5.27;4.80;;;;;;;;;;5098130;27;20215;-69
2022/09/02 05:28:19;;;;;;;5.40;4.90;;;;;;;;;;5106537;27;20210;-68
2022/09/02 05:30:47;;;;;;;5.40;4.90;;;;;;;;;;5132230;27;20203;-67
2022/09/02 05:33:14;;;;;;;5.57;4.50;;;;;;;;;;5110187;27;20612;-67
2022/09/02 05:35:43;;;;;;;5.33;4.87;;;;;;;;;;5108532;27;20220;-68
2022/09/02 05:38:16;;;;;;;5.93;4.50;;;;;;;;;;5122071;27;20288;-69
2022/09/02 05:40:43;;;;;;;5.13;4.70;;;;;;;;;;5107029;27;20215;-69
2022/09/02 05:43:11;;;;;;;6.10;5.30;;;;;;;;;;5106551;27;20219;-69
2022/09/02 05:45:38;;;;;;;5.20;4.80;;;;;;;;;;5103307;27;20207;-66
2022/09/02 05:49:04;;;;;;;5.70;5.20;;;;;;;;;;5102420;27;20301;-68
2022/09/02 05:50:54;;;;;;;5.67;4.80;;;;;;;;;;5118653;27;20615;-69
2022/09/02 05:53:25;;;;;;;5.47;4.90;;;;;;;;;;5112718;27;20647;-69
2022/09/02 05:55:53;;;;;;;5.20;4.80;;;;;;;;;;5104520;27;20235;-68
2022/09/02 05:58:21;;;;;;;8.90;4.77;;;;;;;;;;5102123;27;20207;-69
2022/09/02 06:00:48;;;;;;;5.40;4.90;;;;;;;;;;5097926;27;20274;-68
2022/09/02 06:03:18;;;;;;;6.23;4.60;;;;;;;;;;5101240;27;20226;-69
2022/09/02 06:05:56;;;;;;;4.63;4.23;;;;;;;;;;5106050;27;20207;-69
2022/09/02 06:08:25;;;;;;;5.30;4.77;;;;;;;;;;5105093;27;20244;-68
2022/09/02 06:10:52;;;;;;;4.97;4.53;;;;;;;;;;5099994;27;20203;-69
2022/09/02 06:13:21;;;;;;;5.07;4.67;;;;;;;;;;5096053;27;20714;-69
2022/09/02 06:15:49;;;;;;;5.50;5.00;;;;;;;;;;5103867;27;20206;-69
2022/09/02 06:18:17;;;;;;;4.93;4.53;;;;;;;;;;5097662;27;20219;-67
2022/09/02 06:20:45;;;;;;;5.20;4.70;;;;;;;;;;5100960;27;20200;-68
2022/09/02 06:23:13;;;;;;;4.67;4.27;;;;;;;;;;5100158;27;20216;-70
2022/09/02 06:25:42;;;;;;;4.70;4.40;;;;;;;;;;5096703;27;20203;-65
2022/09/02 06:28:10;;;;;;;5.13;4.60;;;;;;;;;;5099012;27;20231;-67
2022/09/02 06:30:38;;;;;;;7.23;5.00;;;;;;;;;;5101193;27;20252;-69
2022/09/02 06:33:06;;;;;;;4.57;4.17;;;;;;;;;;5116357;27;20223;-69
2022/09/02 06:35:36;;;;;;;6.73;4.20;;;;;;;;;;5099282;27;20200;-69
2022/09/02 06:38:04;;;;;;;4.77;4.40;;;;;;;;;;5100228;27;20223;-68
2022/09/02 06:40:31;;;;;;;4.73;4.27;;;;;;;;;;5115460;27;20219;-68
2022/09/02 06:42:59;;;;;;;6.57;4.30;;;;;;;;;;5108006;27;20638;-69
2022/09/02 06:45:26;;;;;;;4.20;3.90;;;;;;;;;;5107096;27;20568;-69
2022/09/02 06:47:53;;;;;;;5.47;4.27;;;;;;;;;;5108925;27;20215;-66
2022/09/02 06:50:21;;;;;;;5.63;4.30;;;;;;;;;;5105578;27;20207;-69
2022/09/02 06:52:48;;;;;;;5.43;4.07;;;;;;;;;;5104188;27;22386;-69
2022/09/02 06:55:16;;;;;;;4.67;4.23;;;;;;;;;;5109333;27;20252;-69
2022/09/02 06:57:44;;;;;;;4.77;4.00;;;;;;;;;;5111505;27;20215;-69
2022/09/02 07:00:11;;;;;;;4.53;4.07;;;;;;;;;;5107604;27;20225;-69
2022/09/02 07:02:39;;;;;;;5.50;3.83;;;;;;;;;;5100088;27;20219;-67
2022/09/02 07:05:10;;;;;;;6.10;3.97;;;;;;;;;;5098561;27;20257;-68
2022/09/02 07:07:38;;;;;;;4.30;3.90;;;;;;;;;;5096020;27;20218;-64
2022/09/02 07:10:07;;;;;;;4.07;3.73;;;;;;;;;;5095925;27;20261;-68
2022/09/02 07:12:35;;;;;;;4.27;3.97;;;;;;;;;;5098738;27;20228;-68
2022/09/02 07:15:03;;;;;;;4.57;4.17;;;;;;;;;;5097028;27;20206;-68
2022/09/02 07:17:31;;;;;;;4.20;3.87;;;;;;;;;;5094798;27;20775;-69
2022/09/02 07:19:59;;;;;;;3.90;3.60;;;;;;;;;;5109255;27;20211;-67
2022/09/02 07:22:27;;;;;;;4.70;3.77;;;;;;;;;;5115974;27;20203;-67
2022/09/02 07:24:55;;;;;;;3.70;3.40;;;;;;;;;;5105942;27;20642;-69
2022/09/02 07:27:22;;;;;;;4.10;3.70;;;;;;;;;;5091132;27;20236;-69
2022/09/02 07:29:49;;;;;;;3.83;3.53;;;;;;;;;;5088106;27;20207;-69
2022/09/02 07:32:17;;;;;;;4.60;3.20;;;;;;;;;;5095435;27;20311;-66
2022/09/02 07:34:46;;;;;;;4.07;3.30;;;;;;;;;;5101160;27;20665;-67
2022/09/02 07:37:13;;;;;;;3.88;3.45;;;;;;;;;;5096727;27;20529;-68
2022/09/02 07:39:42;;;;;;;3.80;3.40;;;;;;;;;;5102430;27;20211;-69
2022/09/02 07:42:09;;;;;;;3.83;3.50;;;;;;;;;;5111268;27;20219;-68
2022/09/02 07:44:36;;;;;;;3.47;3.17;;;;;;;;;;5104092;27;20221;-67
2022/09/02 07:47:05;;;;;;;3.83;3.17;;;;;;;;;;5105180;27;20622;-68
2022/09/02 07:49:32;;;;;;;3.15;2.95;;;;;;;;;;5098612;27;20211;-68
2022/09/02 07:52:20;;;;;;;3.97;2.95;;;;;;;;;;5108030;27;20663;-70
2022/09/02 07:54:47;;;;;;;3.38;2.90;;;;;;;;;;5112972;27;20249;-67
2022/09/02 07:57:15;;;;;;;2.90;2.70;;;;;;;;;;5111705;27;20272;-68
2022/09/02 07:59:45;;;;;;;3.00;2.80;;;;;;;;;;5127999;27;20325;-68
2022/09/02 08:02:13;;;;;;;3.20;2.88;;;;;;;;;;5108990;27;20224;-68
2022/09/02 08:04:40;;;;;;;2.72;2.53;;;;;;;;;;5110188;27;20581;-68
2022/09/02 08:07:09;;;;;;;3.22;2.90;;;;;;;;;;5096929;27;20212;-70
2022/09/02 08:09:37;;;;;;;2.90;2.70;;;;;;;;;;5110203;27;20226;-70
2022/09/02 08:12:05;;;;;;;2.70;2.47;;;;;;;;;;5127670;27;20233;-69
2022/09/02 08:14:33;;;;;;;2.97;2.78;;;;;;;;;;5110098;27;20203;-69
2022/09/02 08:17:00;;;;;;;4.65;2.60;;;;;;;;;;5110557;27;20238;-69
2022/09/02 08:19:28;;;;;;;2.92;2.55;;;;;;;;;;5107627;27;20302;-67
2022/09/02 08:21:55;;;;;;;2.95;2.63;;;;;;;;;;5100561;27;20219;-69
2022/09/02 08:24:23;;;;;;;2.70;2.50;;;;;;;;;;5101752;27;20203;-66
2022/09/02 08:26:50;;;;;;;2.70;2.50;;;;;;;;;;5101867;27;20635;-69
2022/09/02 08:29:19;;;;;;;3.20;2.40;;;;;;;;;;5097937;27;20204;-68
2022/09/02 08:31:46;;;;;;;2.65;2.42;;;;;;;;;;5111003;27;20231;-67
2022/09/02 08:34:18;;;;;;;2.55;2.30;;;;;;;;;;5104919;27;20239;-69
2022/09/02 08:36:45;;;;;;;2.22;2.10;;;;;;;;;;5104463;27;20216;-68
2022/09/02 08:39:22;;;;;;;2.38;2.17;;;;;;;;;;5106213;27;20232;-69
2022/09/02 08:41:56;;;;;;;2.38;2.17;;;;;;;;;;5100621;27;20231;-67
2022/09/02 08:44:27;;;;;;;2.45;2.25;;;;;;;;;;5112253;27;20207;-67
2022/09/02 08:46:58;;;;;;;3.15;2.20;;;;;;;;;;5103669;27;20221;-68
2022/09/02 08:49:30;;;;;;;2.42;2.30;;;;;;;;;;5114394;27;20222;-67
2022/09/02 08:51:58;;;;;;;5.05;2.08;;;;;;;;;;5096820;27;20231;-67
2022/09/02 08:54:31;;;;;;;3.35;1.95;;;;;;;;;;5103786;27;21117;-70
2022/09/02 08:56:58;;;;;;;3.15;2.17;;;;;;;;;;5100642;27;20230;-69
2022/09/02 08:59:27;;;;;;;2.20;2.10;;;;;;;;;;5107853;27;20195;-69
2022/09/02 09:02:01;;;;;;;2.15;2.05;;;;;;;;;;5099781;27;20722;-69
2022/09/02 09:04:35;;;;;;;3.00;2.15;;;;;;;;;;5098143;27;20203;-69
2022/09/02 09:07:26;;;;;;;2.40;2.20;;;;;;;;;;5093703;27;20310;-68
2022/09/02 09:09:53;;;;;;;2.50;2.30;;;;;;;;;;5091181;27;20203;-68
2022/09/02 09:12:28;;;;;;;3.08;2.13;;;;;;;;;;5113760;27;20255;-67
2022/09/02 09:15:05;;;;;;;2.67;2.10;;;;;;;;;;5093503;27;20207;-68
2022/09/02 09:17:43;;;;;;;2.60;2.20;;;;;;;;;;5100359;27;20292;-68
2022/09/02 09:20:16;;;;;;;2.38;2.03;;;;;;;;;;5100043;27;20206;-68
2022/09/02 09:22:43;;;;;;;2.80;2.25;;;;;;;;;;5098074;27;20219;-69
2022/09/02 09:25:13;;;;;;;2.50;2.30;;;;;;;;;;5115321;27;20586;-66
2022/09/02 09:27:40;;;;;;;2.50;2.30;;;;;;;;;;5104478;28;20208;-68
2022/09/02 09:30:10;;;;;;;2.47;2.25;;;;;;;;;;5105091;27;20203;-68
2022/09/02 09:32:50;;;;;;;2.10;2.00;;;;;;;;;;5119357;27;20231;-69
2022/09/02 09:35:21;;;;;;;2.05;1.95;;;;;;;;;;5104620;27;20257;-65
2022/09/02 09:37:49;;;;;;;2.70;2.22;;;;;;;;;;5093444;27;20376;-69
2022/09/02 09:40:17;;;;;;;4.03;2.30;;;;;;;;;;5099277;27;20208;-68
2022/09/02 09:42:45;;;;;;;7.10;2.20;;;;;;;;;;5089137;27;20289;-70
2022/09/02 09:45:20;;;;;;;3.78;2.20;;;;;;;;;;5079359;27;20214;-66
2022/09/02 09:48:06;;;;;;;2.47;2.28;;;;;;;;;;5099430;27;20211;-69
2022/09/02 09:50:33;;;;;;;2.30;2.10;;;;;;;;;;5098456;27;20207;-68
2022/09/02 09:53:20;;;;;;;2.63;2.38;;;;;;;;;;5098600;27;20234;-69
2022/09/02 09:55:52;;;;;;;2.33;2.20;;;;;;;;;;5096658;27;20207;-69
2022/09/02 09:58:26;;;;;;;3.88;2.38;;;;;;;;;;5101943;27;20223;-70
2022/09/02 10:00:59;;;;;;;3.40;2.40;;;;;;;;;;5100953;27;20211;-67
2022/09/02 10:03:27;;;;;;;4.50;2.72;;;;;;;;;;5100477;27;20238;-68
2022/09/02 10:06:16;;;;;;;3.78;2.72;;;;;;;;;;5092102;27;20204;-68
2022/09/02 10:08:51;;;;;;;2.53;2.33;;;;;;;;;;5083105;27;20205;-69
2022/09/02 10:11:23;;;;;;;3.58;2.20;;;;;;;;;;5092090;27;20226;-68
2022/09/02 10:13:53;;;;;;;4.93;2.10;;;;;;;;;;5093334;27;20272;-68
2022/09/02 10:16:29;;;;;;;2.92;2.53;;;;;;;;;;5092427;27;20206;-67
2022/09/02 10:18:57;;;;;;;2.72;2.35;;;;;;;;;;5100433;27;20883;-69
2022/09/02 10:21:44;;;;;;;2.33;2.10;;;;;;;;;;5093273;27;20222;-69
2022/09/02 10:24:21;;;;;;;2.83;2.25;;;;;;;;;;5103158;27;20210;-68
2022/09/02 10:26:50;;;;;;;2.28;2.17;;;;;;;;;;5100714;27;20575;-68
2022/09/02 10:29:36;;;;;;;3.22;2.13;;;;;;;;;;5097010;27;20740;-68
2022/09/02 10:32:12;;;;;;;4.90;2.25;;;;;;;;;;5102715;27;20223;-69
2022/09/02 10:34:55;;;;;;;2.75;2.55;;;;;;;;;;5090285;27;20204;-68
2022/09/02 10:37:24;;;;;;;2.85;2.17;;;;;;;;;;5099255;27;20273;-68
2022/09/02 10:39:57;;;;;;;2.50;2.30;;;;;;;;;;5089146;27;20204;-68
2022/09/02 10:42:43;;;;;;;3.13;2.20;;;;;;;;;;5102821;27;20564;-68
2022/09/02 10:45:16;;;;;;;3.70;2.60;;;;;;;;;;5081467;27;20211;-68
2022/09/02 10:47:50;;;;;;;5.25;2.50;;;;;;;;;;5086323;27;20226;-68
2022/09/02 10:50:52;;;;;;;2.92;2.70;;;;;;;;;;5084749;27;20763;-67
2022/09/02 10:53:33;;;;;;;3.28;2.30;;;;;;;;;;5057413;27;20210;-69
2022/09/02 10:56:05;;;;;;;2.58;2.20;;;;;;;;;;5082158;27;20714;-68
2022/09/02 10:59:04;;;;;;;2.65;2.45;;;;;;;;;;5094393;27;20884;-67
2022/09/02 11:01:36;;;;;;;2.70;2.50;;;;;;;;;;5061849;27;20230;-67
2022/09/02 11:04:13;;;;;;;3.13;2.22;;;;;;;;;;5089099;27;20207;-67
2022/09/02 11:06:42;;;;;;;2.30;2.10;;;;;;;;;;5085990;27;20248;-69
2022/09/02 11:09:32;;;;;;;2.63;2.30;;;;;;;;;;5084567;27;20309;-68
2022/09/02 11:12:06;;;;;;;2.42;2.05;;;;;;;;;;5099651;27;20307;-69
2022/09/02 11:14:40;;;;;;;2.72;2.50;;;;;;;;;;5086416;27;20665;-67
2022/09/02 11:17:20;;;;;;;2.47;2.10;;;;;;;;;;5087266;27;20203;-68
2022/09/02 11:19:57;;;;;;;2.15;1.95;;;;;;;;;;5084731;27;20219;-67
2022/09/02 11:22:28;;;;;;;2.25;2.10;;;;;;;;;;5094817;27;20226;-68
2022/09/02 11:25:15;;;;;;;2.40;2.10;;;;;;;;;;5085815;27;20226;-68
2022/09/02 11:28:02;;;;;;;3.40;2.20;;;;;;;;;;5108898;27;20569;-67
2022/09/02 11:30:38;;;;;;;2.60;2.40;;;;;;;;;;5084137;27;20246;-69
2022/09/02 11:33:08;;;;;;;3.42;2.20;;;;;;;;;;5088512;27;20242;-68
2022/09/02 11:35:38;;;;;;;3.85;2.70;;;;;;;;;;5089656;27;20845;-67
2022/09/02 11:38:15;;;;;;;2.75;2.05;;;;;;;;;;5090111;27;20272;-68
2022/09/02 11:40:49;;;;;;;2.00;1.85;;;;;;;;;;5089893;28;20200;-67
2022/09/02 11:43:43;;;;;;;2.28;2.08;;;;;;;;;;5090579;27;21529;-67
2022/09/02 11:46:31;;;;;;;3.00;1.80;;;;;;;;;;5090270;27;20215;-69
2022/09/02 11:49:08;;;;;;;2.08;1.88;;;;;;;;;;5105993;27;21046;-69
2022/09/02 11:51:47;;;;;;;2.70;1.75;;;;;;;;;;5087301;27;20219;-68
2022/09/02 11:54:17;;;;;;;2.40;2.00;;;;;;;;;;5088504;27;20212;-68
2022/09/02 11:56:46;;;;;;;2.65;1.90;;;;;;;;;;5110672;27;20200;-67
2022/09/02 11:59:43;;;;;;;1.90;1.80;;;;;;;;;;5088913;27;20439;-69
2022/09/02 12:02:12;;;;;;;4.07;1.88;;;;;;;;;;5088343;28;20227;-68
2022/09/02 12:04:39;;;;;;;3.10;1.85;;;;;;;;;;5091237;27;20233;-68
2022/09/02 12:07:26;;;;;;;1.77;1.67;;;;;;;;;;5093860;27;20200;-67
2022/09/02 12:10:01;;;;;;;2.20;2.00;;;;;;;;;;5108966;27;20686;-68
2022/09/02 12:12:38;;;;;;;2.03;1.88;;;;;;;;;;5089315;28;20227;-68
2022/09/02 12:15:06;;;;;;;2.08;1.98;;;;;;;;;;5091709;28;20223;-68
2022/09/02 12:17:38;;;;;;;2.00;1.70;;;;;;;;;;5086912;27;20235;-68
2022/09/02 12:20:08;;;;;;;1.80;1.65;;;;;;;;;;5084622;28;20191;-68
2022/09/02 12:22:37;;;;;;;1.70;1.60;;;;;;;;;;5082384;28;20255;-68
2022/09/02 12:25:25;;;;;;;1.73;1.60;;;;;;;;;;5092105;28;20226;-68
2022/09/02 12:28:20;;;;;;;1.98;1.60;;;;;;;;;;5089645;27;20236;-68
2022/09/02 12:31:07;;;;;;;1.70;1.60;;;;;;;;;;5110298;27;20231;-67
2022/09/02 12:33:36;;;;;;;2.10;1.90;;;;;;;;;;5102339;27;20576;-67
2022/09/02 12:36:04;;;;;;;2.00;1.80;;;;;;;;;;5102047;27;20625;-67
2022/09/02 12:38:33;;;;;;;1.83;1.65;;;;;;;;;;5100662;27;20633;-71
2022/09/02 12:41:12;;;;;;;4.47;1.90;;;;;;;;;;5100108;27;20385;-68
2022/09/02 12:43:40;;;;;;;2.05;1.73;;;;;;;;;;5106315;27;20215;-67
2022/09/02 12:46:27;;;;;;;2.28;2.08;;;;;;;;;;5106258;27;20231;-68
2022/09/02 12:49:05;;;;;;;1.80;1.70;;;;;;;;;;5117913;27;20207;-67
2022/09/02 12:51:51;;;;;;;2.05;1.85;;;;;;;;;;5108316;27;20235;-68
2022/09/02 12:54:25;;;;;;;2.75;2.25;;;;;;;;;;5106291;27;20237;-68
2022/09/02 12:56:52;;;;;;;2.33;1.92;;;;;;;;;;5097653;27;20324;-68
2022/09/02 12:59:46;;;;;;;1.80;1.70;;;;;;;;;;5094269;27;21462;-68
2022/09/02 13:02:32;;;;;;;2.20;1.67;;;;;;;;;;5099146;27;20641;-68
2022/09/02 13:05:14;;;;;;;2.78;1.75;;;;;;;;;;5101256;27;20252;-67
2022/09/02 13:07:48;;;;;;;1.65;1.55;;;;;;;;;;5108445;27;20813;-68
2022/09/02 13:10:37;;;;;;;2.05;1.58;;;;;;;;;;5112233;27;20653;-67
2022/09/02 13:13:04;;;;;;;1.55;1.45;;;;;;;;;;5118301;27;20306;-69
2022/09/02 13:15:50;;;;;;;1.77;1.65;;;;;;;;;;5101914;27;20253;-68
2022/09/02 13:18:37;;;;;;;2.55;2.10;;;;;;;;;;5098242;27;20220;-68
2022/09/02 13:21:20;;;;;;;3.47;1.70;;;;;;;;;;5102513;27;20208;-67
2022/09/02 13:23:51;;;;;;;1.70;1.60;;;;;;;;;;5109861;27;20200;-67
2022/09/02 13:26:24;;;;;;;2.55;1.70;;;;;;;;;;5115194;27;20199;-68
2022/09/02 13:29:22;;;;;;;2.00;1.90;;;;;;;;;;5103415;27;20211;-68
2022/09/02 13:32:00;;;;;;;1.83;1.60;;;;;;;;;;5107625;27;20893;-68
2022/09/02 13:34:29;;;;;;;1.77;1.67;;;;;;;;;;5107090;27;20211;-68
2022/09/02 13:36:57;;;;;;;1.85;1.75;;;;;;;;;;5106886;27;20208;-68
2022/09/02 13:39:25;;;;;;;2.13;1.80;;;;;;;;;;5097006;27;20544;-67
2022/09/02 13:41:53;;;;;;;2.10;1.90;;;;;;;;;;5111642;27;20212;-68
2022/09/02 13:44:24;;;;;;;2.30;1.80;;;;;;;;;;5095814;27;20214;-66
2022/09/02 13:46:53;;;;;;;1.73;1.63;;;;;;;;;;5105123;27;20214;-67
2022/09/02 13:49:22;;;;;;;1.70;1.60;;;;;;;;;;5102252;27;20450;-67
2022/09/02 13:51:51;;;;;;;1.92;1.63;;;;;;;;;;5101081;27;20223;-68
2022/09/02 13:54:45;;;;;;;1.98;1.60;;;;;;;;;;5105805;27;20204;-67
2022/09/02 13:57:17;;;;;;;2.63;1.50;;;;;;;;;;5096735;27;20211;-67
2022/09/02 13:59:52;;;;;;;2.15;1.83;;;;;;;;;;5086723;27;20298;-66
2022/09/02 14:02:31;;;;;;;4.28;2.30;;;;;;;;;;5110569;27;20687;-68
2022/09/02 14:04:58;;;;;;;1.73;1.63;;;;;;;;;;5092584;27;20199;-66
2022/09/02 14:07:28;;;;;;;2.33;1.75;;;;;;;;;;5096579;27;20207;-67
2022/09/02 14:09:57;;;;;;;1.98;1.58;;;;;;;;;;5096180;27;20253;-67
2022/09/02 14:12:26;;;;;;;2.25;1.40;;;;;;;;;;5099592;27;20280;-67
2022/09/02 14:14:53;;;;;;;1.80;1.70;;;;;;;;;;5099273;27;20199;-67
2022/09/02 14:17:25;;;;;;;3.00;1.90;;;;;;;;;;5096679;27;20234;-66
2022/09/02 14:20:07;;;;;;;1.70;1.42;;;;;;;;;;5112176;27;20227;-67
2022/09/02 14:22:35;;;;;;;2.47;1.42;;;;;;;;;;5097247;27;20220;-67
2022/09/02 14:25:13;;;;;;;2.92;1.60;;;;;;;;;;5101736;27;20199;-67
2022/09/02 14:27:48;;;;;;;2.80;1.30;;;;;;;;;;5099011;27;20196;-68
2022/09/02 14:30:27;;;;;;;1.90;1.80;;;;;;;;;;5098666;27;20207;-68
2022/09/02 14:33:13;;;;;;;1.42;1.40;;;;;;;;;;5100748;27;20233;-67
2022/09/02 14:35:40;;;;;;;1.73;1.60;;;;;;;;;;5096426;27;20211;-67
2022/09/02 14:38:07;;;;;;;2.67;1.40;;;;;;;;;;5090547;27;20261;-68
2022/09/02 14:40:36;;;;;;;1.77;1.50;;;;;;;;;;5098472;27;20211;-67
2022/09/02 14:43:04;;;;;;;1.73;1.63;;;;;;;;;;5100019;27;20640;-68
2022/09/02 14:45:32;;;;;;;1.55;1.40;;;;;;;;;;5116696;27;20591;-68
2022/09/02 14:48:02;;;;;;;1.63;1.42;;;;;;;;;;5097569;27;20231;-67
2022/09/02 14:50:33;;;;;;;2.90;1.52;;;;;;;;;;5101080;27;20308;-67
2022/09/02 14:53:06;;;;;;;1.52;1.42;;;;;;;;;;5100314;27;21717;-67
2022/09/02 14:55:43;;;;;;;2.55;1.42;;;;;;;;;;5088682;27;20770;-68
2022/09/02 14:58:10;;;;;;;1.40;1.30;;;;;;;;;;5092013;27;20254;-66
2022/09/02 15:00:40;;;;;;;1.50;1.40;;;;;;;;;;5100834;27;20685;-68
2022/09/02 15:03:08;;;;;;;2.30;1.30;;;;;;;;;;5078351;27;20231;-69
2022/09/02 15:05:36;;;;;;;2.00;1.50;;;;;;;;;;5065735;27;20722;-66
2022/09/02 15:08:07;;;;;;;1.33;1.20;;;;;;;;;;5067869;27;20214;-67